sensor_id;sensor_type;location;lat;lon;timestamp;pressure;altitude;pressure_sealevel;temperature;humidity
45357;BME280;31092;51.924;21.448;2022-07-10T00:01:22;100198.56;;;12.96;100.00
45357;BME280;31092;51.924;21.448;2022-07-10T00:03:48;100195.19;;;12.93;100.00
45357;BME280;31092;51.924;21.448;2022-07-10T00:06:16;100196.69;;;12.96;100.00
45357;BME280;31092;51.924;21.448;2022-07-10T00:08:41;100198.72;;;12.94;100.00
45357;BME280;31092;51.924;21.448;2022-07-10T00:11:14;100199.00;;;12.84;100.00
45357;BME280;31092;51.924;21.448;2022-07-10T00:13:39;100116.69;;;12.26;100.00
45357;BME280;31092;51.924;21.448;2022-07-10T00:16:05;100190.53;;;12.64;100.00
45357;BME280;31092;51.924;21.448;2022-07-10T00:18:40;100199.66;;;12.63;100.00
45357;BME280;31092;51.924;21.448;2022-07-10T00:21:09;100183.69;;;12.54;100.00
45357;BME280;31092;51.924;21.448;2022-07-10T00:27:01;100188.75;;;12.26;100.00
45357;BME280;31092;51.924;21.448;2022-07-10T00:29:27;100192.00;;;12.21;100.00
45357;BME280;31092;51.924;21.448;2022-07-10T00:31:52;100183.28;;;12.11;100.00
45357;BME280;31092;51.924;21.448;2022-07-10T00:34:38;100178.91;;;12.10;100.00
45357;BME280;31092;51.924;21.448;2022-07-10T00:43:54;100158.84;;;11.65;100.00
45357;BME280;31092;51.924;21.448;2022-07-10T00:49:10;100150.88;;;11.32;100.00
45357;BME280;31092;51.924;21.448;2022-07-10T00:55:01;100165.56;;;11.21;100.00
45357;BME280;31092;51.924;21.448;2022-07-10T00:57:31;100058.03;;;10.54;100.00
45357;BME280;31092;51.924;21.448;2022-07-10T00:59:58;100162.50;;;11.16;100.00
45357;BME280;31092;51.924;21.448;2022-07-10T01:02:24;100153.63;;;11.08;100.00
45357;BME280;31092;51.924;21.448;2022-07-10T01:04:50;100130.56;;;10.89;100.00
45357;BME280;31092;51.924;21.448;2022-07-10T01:07:18;100144.38;;;10.86;100.00
45357;BME280;31092;51.924;21.448;2022-07-10T01:09:44;100144.56;;;10.76;100.00
45357;BME280;31092;51.924;21.448;2022-07-10T01:12:11;100150.44;;;10.63;100.00
45357;BME280;31092;51.924;21.448;2022-07-10T01:14:45;100152.13;;;10.64;100.00
45357;BME280;31092;51.924;21.448;2022-07-10T01:17:20;100163.06;;;10.63;100.00
45357;BME280;31092;51.924;21.448;2022-07-10T01:20:28;100155.31;;;10.60;100.00
45357;BME280;31092;51.924;21.448;2022-07-10T01:22:54;100080.03;;;10.09;100.00
45357;BME280;31092;51.924;21.448;2022-07-10T01:25:20;100152.13;;;10.48;100.00
45357;BME280;31092;51.924;21.448;2022-07-10T01:27:45;100079.34;;;9.99;100.00
45357;BME280;31092;51.924;21.448;2022-07-10T01:30:11;100067.25;;;9.78;100.00
45357;BME280;31092;51.924;21.448;2022-07-10T01:32:38;100151.53;;;10.20;100.00
45357;BME280;31092;51.924;21.448;2022-07-10T01:35:04;100142.75;;;10.01;100.00
45357;BME280;31092;51.924;21.448;2022-07-10T01:37:30;100147.84;;;10.13;100.00
45357;BME280;31092;51.924;21.448;2022-07-10T01:39:56;100142.25;;;10.06;100.00
45357;BME280;31092;51.924;21.448;2022-07-10T01:42:21;100138.59;;;10.07;100.00
45357;BME280;31092;51.924;21.448;2022-07-10T01:44:47;100138.09;;;10.12;100.00
45357;BME280;31092;51.924;21.448;2022-07-10T01:47:12;100123.59;;;10.04;100.00
45357;BME280;31092;51.924;21.448;2022-07-10T01:49:38;100155.47;;;10.25;100.00
45357;BME280;31092;51.924;21.448;2022-07-10T01:52:04;100140.28;;;10.24;100.00
45357;BME280;31092;51.924;21.448;2022-07-10T01:54:29;100141.50;;;10.30;100.00
45357;BME280;31092;51.924;21.448;2022-07-10T01:56:55;100130.91;;;10.37;100.00
45357;BME280;31092;51.924;21.448;2022-07-10T01:59:20;100136.81;;;10.40;100.00
45357;BME280;31092;51.924;21.448;2022-07-10T02:01:46;100101.47;;;10.27;100.00
45357;BME280;31092;51.924;21.448;2022-07-10T02:04:11;100122.50;;;10.40;100.00
45357;BME280;31092;51.924;21.448;2022-07-10T02:06:55;100045.41;;;9.98;100.00
45357;BME280;31092;51.924;21.448;2022-07-10T02:09:21;100106.84;;;10.27;100.00
45357;BME280;31092;51.924;21.448;2022-07-10T02:11:46;100117.47;;;10.28;100.00
45357;BME280;31092;51.924;21.448;2022-07-10T02:14:12;100116.94;;;10.33;100.00
45357;BME280;31092;51.924;21.448;2022-07-10T02:16:37;100114.25;;;10.33;100.00
45357;BME280;31092;51.924;21.448;2022-07-10T02:19:03;100036.13;;;9.84;100.00
45357;BME280;31092;51.924;21.448;2022-07-10T02:21:29;100130.06;;;10.44;100.00
45357;BME280;31092;51.924;21.448;2022-07-10T02:23:54;100110.41;;;10.36;100.00
45357;BME280;31092;51.924;21.448;2022-07-10T02:26:20;100008.56;;;9.82;100.00
45357;BME280;31092;51.924;21.448;2022-07-10T02:28:45;100102.81;;;10.39;100.00
45357;BME280;31092;51.924;21.448;2022-07-10T02:31:11;100115.75;;;10.52;100.00
45357;BME280;31092;51.924;21.448;2022-07-10T02:33:37;100093.22;;;10.45;100.00
45357;BME280;31092;51.924;21.448;2022-07-10T02:36:03;100095.41;;;10.41;100.00
45357;BME280;31092;51.924;21.448;2022-07-10T02:38:29;100104.34;;;10.50;100.00
45357;BME280;31092;51.924;21.448;2022-07-10T02:40:55;100104.50;;;10.57;100.00
45357;BME280;31092;51.924;21.448;2022-07-10T02:43:20;100099.94;;;10.49;100.00
45357;BME280;31092;51.924;21.448;2022-07-10T02:45:46;100009.59;;;9.97;100.00
45357;BME280;31092;51.924;21.448;2022-07-10T02:48:12;100103.31;;;10.59;100.00
45357;BME280;31092;51.924;21.448;2022-07-10T02:50:38;100086.00;;;10.53;100.00
45357;BME280;31092;51.924;21.448;2022-07-10T02:53:03;100089.00;;;10.59;100.00
45357;BME280;31092;51.924;21.448;2022-07-10T02:55:29;100089.00;;;10.59;100.00
45357;BME280;31092;51.924;21.448;2022-07-10T02:57:58;100007.56;;;10.16;100.00
45357;BME280;31092;51.924;21.448;2022-07-10T03:00:25;100097.94;;;10.67;100.00
45357;BME280;31092;51.924;21.448;2022-07-10T03:02:51;100115.59;;;10.78;100.00
45357;BME280;31092;51.924;21.448;2022-07-10T03:05:17;100017.31;;;10.25;100.00
45357;BME280;31092;51.924;21.448;2022-07-10T03:07:43;100107.50;;;10.86;100.00
45357;BME280;31092;51.924;21.448;2022-07-10T03:10:09;100096.72;;;10.86;100.00
45357;BME280;31092;51.924;21.448;2022-07-10T03:12:34;100019.69;;;10.44;100.00
45357;BME280;31092;51.924;21.448;2022-07-10T03:15:00;100103.91;;;11.02;100.00
45357;BME280;31092;51.924;21.448;2022-07-10T03:17:25;100107.09;;;11.06;100.00
45357;BME280;31092;51.924;21.448;2022-07-10T03:19:51;100104.91;;;11.09;100.00
45357;BME280;31092;51.924;21.448;2022-07-10T03:22:16;100113.00;;;11.17;100.00
45357;BME280;31092;51.924;21.448;2022-07-10T03:24:42;100030.72;;;10.74;100.00
45357;BME280;31092;51.924;21.448;2022-07-10T03:27:12;100121.53;;;11.29;100.00
45357;BME280;31092;51.924;21.448;2022-07-10T03:29:37;100121.69;;;11.36;100.00
45357;BME280;31092;51.924;21.448;2022-07-10T03:32:03;100109.69;;;11.38;100.00
45357;BME280;31092;51.924;21.448;2022-07-10T03:34:29;100121.97;;;11.49;100.00
45357;BME280;31092;51.924;21.448;2022-07-10T03:36:55;100107.88;;;11.39;100.00
45357;BME280;31092;51.924;21.448;2022-07-10T03:39:21;100020.75;;;10.91;100.00
45357;BME280;31092;51.924;21.448;2022-07-10T03:41:46;100103.81;;;11.43;100.00
45357;BME280;31092;51.924;21.448;2022-07-10T03:44:12;100101.59;;;11.38;100.00
45357;BME280;31092;51.924;21.448;2022-07-10T03:46:41;100039.44;;;11.00;100.00
45357;BME280;31092;51.924;21.448;2022-07-10T03:52:30;100112.78;;;11.35;100.00
45357;BME280;31092;51.924;21.448;2022-07-10T03:54:55;100081.47;;;11.18;100.00
45357;BME280;31092;51.924;21.448;2022-07-10T03:57:21;100031.72;;;10.89;100.00
45357;BME280;31092;51.924;21.448;2022-07-10T04:00:09;100098.25;;;11.36;100.00
45357;BME280;31092;51.924;21.448;2022-07-10T04:02:34;100098.13;;;11.30;100.00
45357;BME280;31092;51.924;21.448;2022-07-10T04:05:09;100085.31;;;11.32;100.00
45357;BME280;31092;51.924;21.448;2022-07-10T04:07:36;100076.84;;;11.35;100.00
45357;BME280;31092;51.924;21.448;2022-07-10T04:10:02;100076.00;;;11.34;100.00
45357;BME280;31092;51.924;21.448;2022-07-10T04:12:28;100097.19;;;11.54;100.00
45357;BME280;31092;51.924;21.448;2022-07-10T04:14:53;100095.81;;;11.58;100.00
45357;BME280;31092;51.924;21.448;2022-07-10T04:17:19;100021.16;;;11.19;100.00
45357;BME280;31092;51.924;21.448;2022-07-10T04:19:45;100082.75;;;11.78;100.00
45357;BME280;31092;51.924;21.448;2022-07-10T04:25:07;100090.47;;;12.12;100.00
45357;BME280;31092;51.924;21.448;2022-07-10T04:27:35;100085.31;;;12.25;100.00
45357;BME280;31092;51.924;21.448;2022-07-10T04:30:50;100095.38;;;12.54;100.00
45357;BME280;31092;51.924;21.448;2022-07-10T04:33:55;100092.34;;;12.72;100.00
45357;BME280;31092;51.924;21.448;2022-07-10T04:36:24;100071.38;;;12.74;100.00
45357;BME280;31092;51.924;21.448;2022-07-10T04:38:53;100074.66;;;12.84;100.00
45357;BME280;31092;51.924;21.448;2022-07-10T04:44:44;100075.97;;;13.03;100.00
45357;BME280;31092;51.924;21.448;2022-07-10T04:57:04;100064.19;;;13.55;100.00
45357;BME280;31092;51.924;21.448;2022-07-10T04:59:30;100021.31;;;13.37;100.00
45357;BME280;31092;51.924;21.448;2022-07-10T05:01:58;100068.69;;;13.63;100.00
45357;BME280;31092;51.924;21.448;2022-07-10T05:04:24;100085.28;;;13.75;100.00
45357;BME280;31092;51.924;21.448;2022-07-10T05:06:50;100068.31;;;13.66;100.00
45357;BME280;31092;51.924;21.448;2022-07-10T05:09:15;100086.09;;;13.75;100.00
45357;BME280;31092;51.924;21.448;2022-07-10T05:11:41;100084.06;;;13.77;100.00
45357;BME280;31092;51.924;21.448;2022-07-10T05:14:07;100058.59;;;13.72;100.00
45357;BME280;31092;51.924;21.448;2022-07-10T05:16:32;100092.31;;;13.90;100.00
45357;BME280;31092;51.924;21.448;2022-07-10T05:18:58;100067.25;;;13.82;100.00
45357;BME280;31092;51.924;21.448;2022-07-10T05:21:24;100070.31;;;13.79;100.00
45357;BME280;31092;51.924;21.448;2022-07-10T05:23:50;100025.81;;;13.45;100.00
45357;BME280;31092;51.924;21.448;2022-07-10T05:26:19;100087.03;;;13.82;100.00
45357;BME280;31092;51.924;21.448;2022-07-10T05:28:45;100071.56;;;13.61;100.00
45357;BME280;31092;51.924;21.448;2022-07-10T05:31:10;100083.31;;;13.69;100.00
45357;BME280;31092;51.924;21.448;2022-07-10T05:33:36;100077.19;;;13.60;100.00
45357;BME280;31092;51.924;21.448;2022-07-10T05:36:06;100079.69;;;13.61;100.00
45357;BME280;31092;51.924;21.448;2022-07-10T05:38:41;100070.75;;;13.61;100.00
45357;BME280;31092;51.924;21.448;2022-07-10T05:41:06;100076.81;;;13.63;100.00
45357;BME280;31092;51.924;21.448;2022-07-10T05:43:32;100084.44;;;13.74;100.00
45357;BME280;31092;51.924;21.448;2022-07-10T05:45:58;100020.13;;;13.40;100.00
45357;BME280;31092;51.924;21.448;2022-07-10T05:48:24;100071.38;;;13.78;100.00
45357;BME280;31092;51.924;21.448;2022-07-10T05:50:49;100070.63;;;13.69;100.00
45357;BME280;31092;51.924;21.448;2022-07-10T05:53:15;100067.91;;;13.69;100.00
45357;BME280;31092;51.924;21.448;2022-07-10T05:55:41;99996.84;;;13.24;100.00
45357;BME280;31092;51.924;21.448;2022-07-10T05:58:06;99986.16;;;13.23;100.00
45357;BME280;31092;51.924;21.448;2022-07-10T06:00:32;100074.66;;;13.73;100.00
45357;BME280;31092;51.924;21.448;2022-07-10T06:02:58;99995.97;;;13.38;100.00
45357;BME280;31092;51.924;21.448;2022-07-10T06:05:26;100009.00;;;13.50;100.00
45357;BME280;31092;51.924;21.448;2022-07-10T06:07:52;100080.94;;;13.95;100.00
45357;BME280;31092;51.924;21.448;2022-07-10T06:10:18;100077.09;;;13.89;100.00
45357;BME280;31092;51.924;21.448;2022-07-10T06:16:16;100068.16;;;13.89;100.00
45357;BME280;31092;51.924;21.448;2022-07-10T06:18:42;100065.44;;;13.89;100.00
45357;BME280;31092;51.924;21.448;2022-07-10T06:21:08;100049.97;;;13.83;100.00
45357;BME280;31092;51.924;21.448;2022-07-10T06:23:34;100007.00;;;13.58;100.00
45357;BME280;31092;51.924;21.448;2022-07-10T06:25:59;100074.47;;;13.96;100.00
45357;BME280;31092;51.924;21.448;2022-07-10T06:28:25;100075.97;;;13.99;100.00
45357;BME280;31092;51.924;21.448;2022-07-10T06:30:51;99999.09;;;13.57;100.00
45357;BME280;31092;51.924;21.448;2022-07-10T06:33:17;100077.78;;;14.13;100.00
45357;BME280;31092;51.924;21.448;2022-07-10T06:35:42;100068.88;;;14.19;100.00
45357;BME280;31092;51.924;21.448;2022-07-10T06:38:08;100077.13;;;14.32;100.00
45357;BME280;31092;51.924;21.448;2022-07-10T06:40:37;100073.06;;;14.43;100.00
45357;BME280;31092;51.924;21.448;2022-07-10T06:43:03;100013.78;;;14.12;100.00
45357;BME280;31092;51.924;21.448;2022-07-10T06:45:39;100075.47;;;14.53;100.00
45357;BME280;31092;51.924;21.448;2022-07-10T06:48:05;100083.31;;;14.48;100.00
45357;BME280;31092;51.924;21.448;2022-07-10T06:50:31;100081.00;;;14.45;100.00
45357;BME280;31092;51.924;21.448;2022-07-10T06:52:58;100094.94;;;14.42;100.00
45357;BME280;31092;51.924;21.448;2022-07-10T06:55:24;100080.50;;;14.34;100.00
45357;BME280;31092;51.924;21.448;2022-07-10T06:57:50;100078.78;;;14.33;100.00
45357;BME280;31092;51.924;21.448;2022-07-10T07:00:16;99994.34;;;13.80;100.00
45357;BME280;31092;51.924;21.448;2022-07-10T07:02:43;100066.88;;;14.28;100.00
45357;BME280;31092;51.924;21.448;2022-07-10T07:05:38;100075.47;;;14.31;100.00
45357;BME280;31092;51.924;21.448;2022-07-10T07:08:06;100069.97;;;14.25;100.00
45357;BME280;31092;51.924;21.448;2022-07-10T07:10:31;100066.16;;;14.19;100.00
45357;BME280;31092;51.924;21.448;2022-07-10T07:12:57;100079.31;;;14.22;100.00
45357;BME280;31092;51.924;21.448;2022-07-10T07:15:24;100070.50;;;14.13;100.00
45357;BME280;31092;51.924;21.448;2022-07-10T07:17:50;100008.66;;;13.74;100.00
45357;BME280;31092;51.924;21.448;2022-07-10T07:20:26;100075.91;;;14.13;100.00
45357;BME280;31092;51.924;21.448;2022-07-10T07:23:10;99986.13;;;13.52;100.00
45357;BME280;31092;51.924;21.448;2022-07-10T07:25:36;99995.34;;;13.58;100.00
45357;BME280;31092;51.924;21.448;2022-07-10T07:28:09;100076.34;;;13.96;100.00
45357;BME280;31092;51.924;21.448;2022-07-10T07:30:35;100081.75;;;13.96;100.00
45357;BME280;31092;51.924;21.448;2022-07-10T07:33:15;100087.06;;;14.04;100.00
45357;BME280;31092;51.924;21.448;2022-07-10T07:35:41;100089.00;;;14.10;100.00
45357;BME280;31092;51.924;21.448;2022-07-10T07:38:08;100072.69;;;14.03;100.00
45357;BME280;31092;51.924;21.448;2022-07-10T07:40:34;100087.00;;;14.19;100.00
45357;BME280;31092;51.924;21.448;2022-07-10T07:43:00;100079.22;;;14.30;100.00
45357;BME280;31092;51.924;21.448;2022-07-10T07:45:26;100066.94;;;14.34;100.00
45357;BME280;31092;51.924;21.448;2022-07-10T07:50:27;99981.34;;;14.19;100.00
45357;BME280;31092;51.924;21.448;2022-07-10T07:52:54;100068.41;;;14.80;100.00
45357;BME280;31092;51.924;21.448;2022-07-10T07:55:21;100061.44;;;14.71;100.00
45357;BME280;31092;51.924;21.448;2022-07-10T07:57:47;99991.72;;;14.36;100.00
45357;BME280;31092;51.924;21.448;2022-07-10T08:00:13;100052.31;;;14.78;100.00
45357;BME280;31092;51.924;21.448;2022-07-10T08:02:40;100060.72;;;14.83;100.00
45357;BME280;31092;51.924;21.448;2022-07-10T08:05:07;100074.34;;;14.97;100.00
45357;BME280;31092;51.924;21.448;2022-07-10T08:07:46;100083.16;;;15.05;100.00
45357;BME280;31092;51.924;21.448;2022-07-10T08:10:14;100090.69;;;15.10;100.00
45357;BME280;31092;51.924;21.448;2022-07-10T08:12:41;100084.22;;;15.11;100.00
45357;BME280;31092;51.924;21.448;2022-07-10T08:15:08;100074.78;;;15.00;100.00
45357;BME280;31092;51.924;21.448;2022-07-10T08:17:34;100085.06;;;15.05;100.00
45357;BME280;31092;51.924;21.448;2022-07-10T08:20:00;100067.03;;;14.97;100.00
45357;BME280;31092;51.924;21.448;2022-07-10T08:22:26;100078.13;;;15.02;100.00
45357;BME280;31092;51.924;21.448;2022-07-10T08:24:52;100064.97;;;14.99;100.00
45357;BME280;31092;51.924;21.448;2022-07-10T08:27:17;100085.53;;;15.22;100.00
45357;BME280;31092;51.924;21.448;2022-07-10T08:29:43;100008.19;;;14.91;100.00
45357;BME280;31092;51.924;21.448;2022-07-10T08:32:08;100009.09;;;15.12;100.00
45357;BME280;31092;51.924;21.448;2022-07-10T08:34:35;100064.31;;;15.67;100.00
45357;BME280;31092;51.924;21.448;2022-07-10T08:37:01;100004.44;;;15.33;100.00
45357;BME280;31092;51.924;21.448;2022-07-10T08:39:27;100052.22;;;15.83;100.00
45357;BME280;31092;51.924;21.448;2022-07-10T08:41:53;99984.25;;;15.56;100.00
45357;BME280;31092;51.924;21.448;2022-07-10T08:44:19;99988.91;;;15.69;100.00
45357;BME280;31092;51.924;21.448;2022-07-10T08:46:47;100050.66;;;16.35;100.00
45357;BME280;31092;51.924;21.448;2022-07-10T08:49:14;100063.22;;;16.62;100.00
45357;BME280;31092;51.924;21.448;2022-07-10T08:51:47;100056.50;;;16.71;100.00
45357;BME280;31092;51.924;21.448;2022-07-10T08:54:14;99999.66;;;16.37;100.00
45357;BME280;31092;51.924;21.448;2022-07-10T08:56:43;100043.34;;;16.62;100.00
45357;BME280;31092;51.924;21.448;2022-07-10T08:59:09;99982.69;;;16.21;100.00
45357;BME280;31092;51.924;21.448;2022-07-10T09:01:38;100033.31;;;16.62;100.00
45357;BME280;31092;51.924;21.448;2022-07-10T09:04:04;99980.19;;;16.46;100.00
45357;BME280;31092;51.924;21.448;2022-07-10T09:06:29;99981.66;;;16.49;100.00
45357;BME280;31092;51.924;21.448;2022-07-10T09:09:04;100034.34;;;16.88;100.00
45357;BME280;31092;51.924;21.448;2022-07-10T09:11:30;100031.63;;;16.88;100.00
45357;BME280;31092;51.924;21.448;2022-07-10T09:14:01;100032.00;;;17.05;100.00
45357;BME280;31092;51.924;21.448;2022-07-10T09:16:39;100033.63;;;17.26;100.00
45357;BME280;31092;51.924;21.448;2022-07-10T09:19:18;99975.69;;;17.12;100.00
45357;BME280;31092;51.924;21.448;2022-07-10T09:21:46;100011.69;;;17.59;100.00
45357;BME280;31092;51.924;21.448;2022-07-10T09:24:12;99957.56;;;17.37;100.00
45357;BME280;31092;51.924;21.448;2022-07-10T09:26:39;99936.50;;;17.19;100.00
45357;BME280;31092;51.924;21.448;2022-07-10T09:29:09;99946.31;;;17.27;100.00
45357;BME280;31092;51.924;21.448;2022-07-10T09:31:48;100025.16;;;17.47;100.00
45357;BME280;31092;51.924;21.448;2022-07-10T09:34:13;99941.28;;;17.24;100.00
45357;BME280;31092;51.924;21.448;2022-07-10T09:36:39;100011.56;;;18.17;100.00
45357;BME280;31092;51.924;21.448;2022-07-10T09:39:05;99955.53;;;17.96;100.00
45357;BME280;31092;51.924;21.448;2022-07-10T09:41:31;100005.72;;;18.63;100.00
45357;BME280;31092;51.924;21.448;2022-07-10T09:44:02;100016.44;;;19.27;100.00
45357;BME280;31092;51.924;21.448;2022-07-10T09:46:32;99951.19;;;19.37;100.00
45357;BME280;31092;51.924;21.448;2022-07-10T09:49:06;99940.66;;;19.22;100.00
45357;BME280;31092;51.924;21.448;2022-07-10T09:51:38;99998.00;;;19.22;100.00
45357;BME280;31092;51.924;21.448;2022-07-10T09:54:07;99931.59;;;18.73;100.00
45357;BME280;31092;51.924;21.448;2022-07-10T09:56:43;100002.47;;;18.98;100.00
45357;BME280;31092;51.924;21.448;2022-07-10T09:59:19;99986.16;;;19.10;100.00
45357;BME280;31092;51.924;21.448;2022-07-10T10:01:50;99978.91;;;18.85;100.00
45357;BME280;31092;51.924;21.448;2022-07-10T10:04:21;100004.03;;;18.44;100.00
45357;BME280;31092;51.924;21.448;2022-07-10T10:06:51;100005.59;;;17.63;100.00
45357;BME280;31092;51.924;21.448;2022-07-10T10:11:49;100063.75;;;14.74;100.00
45357;BME280;31092;51.924;21.448;2022-07-10T10:14:18;99949.53;;;13.20;100.00
45357;BME280;31092;51.924;21.448;2022-07-10T10:16:46;99996.91;;;13.01;100.00
45357;BME280;31092;51.924;21.448;2022-07-10T10:19:13;100064.13;;;13.04;100.00
45357;BME280;31092;51.924;21.448;2022-07-10T10:21:59;99975.28;;;12.42;100.00
45357;BME280;31092;51.924;21.448;2022-07-10T10:24:28;100065.78;;;12.90;100.00
45357;BME280;31092;51.924;21.448;2022-07-10T10:26:56;100063.88;;;12.99;100.00
45357;BME280;31092;51.924;21.448;2022-07-10T10:29:22;100040.72;;;12.97;100.00
45357;BME280;31092;51.924;21.448;2022-07-10T10:31:49;100034.69;;;13.09;100.00
45357;BME280;31092;51.924;21.448;2022-07-10T10:34:42;100057.63;;;13.43;100.00
45357;BME280;31092;51.924;21.448;2022-07-10T10:37:41;100048.97;;;13.69;100.00
45357;BME280;31092;51.924;21.448;2022-07-10T10:40:11;100040.94;;;13.76;100.00
45357;BME280;31092;51.924;21.448;2022-07-10T10:42:55;100052.94;;;13.88;100.00
45357;BME280;31092;51.924;21.448;2022-07-10T10:49:08;100008.50;;;14.25;100.00
45357;BME280;31092;51.924;21.448;2022-07-10T10:52:24;100037.69;;;14.73;100.00
45357;BME280;31092;51.924;21.448;2022-07-10T10:59:59;100030.00;;;15.18;100.00
45357;BME280;31092;51.924;21.448;2022-07-10T11:02:27;100026.56;;;15.44;100.00
45357;BME280;31092;51.924;21.448;2022-07-10T11:07:54;100014.91;;;16.04;100.00
45357;BME280;31092;51.924;21.448;2022-07-10T11:10:36;100016.75;;;16.50;100.00
45357;BME280;31092;51.924;21.448;2022-07-10T11:13:12;100020.53;;;16.43;100.00
45357;BME280;31092;51.924;21.448;2022-07-10T11:15:49;100009.47;;;16.38;100.00
45357;BME280;31092;51.924;21.448;2022-07-10T11:18:18;100005.28;;;16.48;100.00
45357;BME280;31092;51.924;21.448;2022-07-10T11:20:49;100014.03;;;16.90;100.00
45357;BME280;31092;51.924;21.448;2022-07-10T11:26:02;100010.41;;;17.16;100.00
45357;BME280;31092;51.924;21.448;2022-07-10T11:31:53;100005.06;;;16.90;100.00
45357;BME280;31092;51.924;21.448;2022-07-10T11:34:19;99947.59;;;16.33;100.00
45357;BME280;31092;51.924;21.448;2022-07-10T11:36:47;99952.59;;;16.03;100.00
45357;BME280;31092;51.924;21.448;2022-07-10T11:39:14;100006.94;;;16.03;100.00
45357;BME280;31092;51.924;21.448;2022-07-10T11:41:47;100018.81;;;15.89;100.00
45357;BME280;31092;51.924;21.448;2022-07-10T11:44:17;100029.91;;;15.87;100.00
45357;BME280;31092;51.924;21.448;2022-07-10T11:46:43;100033.44;;;15.81;100.00
45357;BME280;31092;51.924;21.448;2022-07-10T11:49:10;100027.75;;;15.69;100.00
45357;BME280;31092;51.924;21.448;2022-07-10T11:51:39;99966.59;;;15.25;100.00
45357;BME280;31092;51.924;21.448;2022-07-10T11:54:09;99989.56;;;15.29;100.00
45357;BME280;31092;51.924;21.448;2022-07-10T11:56:47;100037.91;;;15.54;100.00
45357;BME280;31092;51.924;21.448;2022-07-10T11:59:13;100029.97;;;15.52;100.00
45357;BME280;31092;51.924;21.448;2022-07-10T12:01:46;100034.25;;;15.75;100.00
45357;BME280;31092;51.924;21.448;2022-07-10T12:04:13;100034.13;;;16.23;100.00
45357;BME280;31092;51.924;21.448;2022-07-10T12:06:44;100005.47;;;16.73;100.00
45357;BME280;31092;51.924;21.448;2022-07-10T12:09:14;100011.75;;;17.45;100.00
45357;BME280;31092;51.924;21.448;2022-07-10T12:11:41;99986.88;;;17.80;100.00
45357;BME280;31092;51.924;21.448;2022-07-10T12:14:19;99936.81;;;18.06;100.00
45357;BME280;31092;51.924;21.448;2022-07-10T12:16:49;99984.25;;;18.49;100.00
45357;BME280;31092;51.924;21.448;2022-07-10T12:19:18;99988.75;;;18.61;100.00
45357;BME280;31092;51.924;21.448;2022-07-10T12:21:47;99973.84;;;18.39;100.00
45357;BME280;31092;51.924;21.448;2022-07-10T12:24:18;99976.34;;;17.90;100.00
45357;BME280;31092;51.924;21.448;2022-07-10T12:26:47;99992.34;;;17.74;100.00
45357;BME280;31092;51.924;21.448;2022-07-10T12:29:21;99990.34;;;17.56;100.00
45357;BME280;31092;51.924;21.448;2022-07-10T12:31:58;99929.84;;;17.09;100.00
45357;BME280;31092;51.924;21.448;2022-07-10T12:34:52;99997.47;;;17.50;100.00
45357;BME280;31092;51.924;21.448;2022-07-10T12:37:23;99979.28;;;17.89;100.00
45357;BME280;31092;51.924;21.448;2022-07-10T12:39:51;99910.38;;;18.07;100.00
45357;BME280;31092;51.924;21.448;2022-07-10T12:42:26;99909.03;;;18.59;100.00
45357;BME280;31092;51.924;21.448;2022-07-10T12:44:52;99972.13;;;19.06;100.00
45357;BME280;31092;51.924;21.448;2022-07-10T12:47:18;99978.34;;;19.32;100.00
45357;BME280;31092;51.924;21.448;2022-07-10T12:49:56;99973.91;;;19.49;100.00
45357;BME280;31092;51.924;21.448;2022-07-10T12:52:32;99962.97;;;19.19;100.00
45357;BME280;31092;51.924;21.448;2022-07-10T12:57:59;99978.34;;;19.32;100.00
45357;BME280;31092;51.924;21.448;2022-07-10T13:00:33;99967.16;;;19.52;100.00
45357;BME280;31092;51.924;21.448;2022-07-10T13:03:00;99975.50;;;19.57;100.00
45357;BME280;31092;51.924;21.448;2022-07-10T13:05:37;99919.41;;;19.43;100.00
45357;BME280;31092;51.924;21.448;2022-07-10T13:08:13;99914.81;;;19.06;100.00
45357;BME280;31092;51.924;21.448;2022-07-10T13:10:50;99962.72;;;19.39;100.00
45357;BME280;31092;51.924;21.448;2022-07-10T13:13:16;99957.84;;;18.93;100.00
45357;BME280;31092;51.924;21.448;2022-07-10T13:15:46;99898.22;;;18.09;100.00
45357;BME280;31092;51.924;21.448;2022-07-10T13:18:28;99890.06;;;18.28;100.00
45357;BME280;31092;51.924;21.448;2022-07-10T13:20:57;99912.63;;;18.78;100.00
45357;BME280;31092;51.924;21.448;2022-07-10T13:23:32;99962.97;;;19.19;100.00
45357;BME280;31092;51.924;21.448;2022-07-10T13:26:00;99916.25;;;19.09;100.00
45357;BME280;31092;51.924;21.448;2022-07-10T13:28:26;99904.47;;;19.27;100.00
45357;BME280;31092;51.924;21.448;2022-07-10T13:30:53;99902.78;;;19.56;100.00
45357;BME280;31092;51.924;21.448;2022-07-10T13:33:19;99959.19;;;20.22;100.00
45357;BME280;31092;51.924;21.448;2022-07-10T13:35:45;99965.75;;;20.33;100.00
45357;BME280;31092;51.924;21.448;2022-07-10T13:38:11;99898.78;;;19.89;100.00
45357;BME280;31092;51.924;21.448;2022-07-10T13:40:37;99906.97;;;20.00;100.00
45357;BME280;31092;51.924;21.448;2022-07-10T13:43:06;99956.44;;;20.22;100.00
45357;BME280;31092;51.924;21.448;2022-07-10T13:45:34;99970.13;;;20.11;100.00
45357;BME280;31092;51.924;21.448;2022-07-10T13:48:20;99958.81;;;20.19;100.00